createdAt,value
2023-05-21T00:01:25.990Z,10.20
2023-05-21T00:03:53.391Z,10.38
2023-05-21T00:06:20.996Z,10.60
2023-05-21T00:08:48.394Z,10.48
2023-05-21T00:11:15.615Z,10.77
2023-05-21T00:13:42.797Z,10.20
2023-05-21T00:16:11.267Z,10.57
2023-05-21T00:18:40.416Z,11.45
2023-05-21T00:21:07.628Z,10.27
2023-05-21T00:23:37.826Z,10.23
2023-05-21T00:26:04.935Z,10.70
2023-05-21T00:28:32.009Z,10.27
2023-05-21T00:30:59.187Z,11.35
2023-05-21T00:33:26.602Z,10.40
2023-05-21T00:35:53.843Z,10.93
2023-05-21T00:38:22.137Z,10.37
2023-05-21T00:40:50.047Z,10.85
2023-05-21T00:43:17.145Z,10.63
2023-05-21T00:45:44.591Z,10.55
2023-05-21T00:48:12.483Z,11.10
2023-05-21T00:50:40.647Z,10.30
2023-05-21T00:53:12.766Z,10.95
2023-05-21T00:55:40.303Z,10.05
2023-05-21T00:58:08.022Z,11.98
2023-05-21T01:00:35.942Z,10.65
2023-05-21T01:03:04.448Z,10.80
2023-05-21T01:05:32.426Z,10.90
2023-05-21T01:07:59.613Z,9.90
2023-05-21T01:10:27.254Z,11.07
2023-05-21T01:12:55.579Z,11.25
2023-05-21T01:15:23.138Z,11.07
2023-05-21T01:17:51.602Z,11.07
2023-05-21T01:20:20.237Z,11.20
2023-05-21T01:22:55.160Z,11.05
2023-05-21T01:25:23.831Z,11.52
2023-05-21T01:27:51.919Z,11.70
2023-05-21T01:30:21.244Z,11.57
2023-05-21T01:32:57.678Z,11.50
2023-05-21T01:35:36.620Z,11.32
2023-05-21T01:38:43.018Z,11.07
2023-05-21T01:41:14.350Z,10.47
2023-05-21T01:43:44.071Z,11.40
2023-05-21T01:46:18.001Z,11.30
2023-05-21T01:48:45.510Z,11.88
2023-05-21T01:51:13.017Z,12.15
2023-05-21T01:53:40.957Z,11.10
2023-05-21T01:56:08.764Z,11.10
2023-05-21T01:58:36.088Z,11.63
2023-05-21T02:01:04.541Z,11.43
2023-05-21T02:03:31.899Z,11.25
2023-05-21T02:05:59.420Z,11.17
2023-05-21T02:08:27.974Z,11.88
2023-05-21T02:10:55.615Z,11.25
2023-05-21T02:13:26.794Z,11.30
2023-05-21T02:15:55.008Z,11.50
2023-05-21T02:18:22.683Z,11.70
2023-05-21T02:20:50.063Z,11.73
2023-05-21T02:23:17.380Z,11.95
2023-05-21T02:25:44.592Z,12.60
2023-05-21T02:28:12.792Z,11.57
2023-05-21T02:30:39.972Z,12.23
2023-05-21T02:33:09.334Z,12.18
2023-05-21T02:35:36.966Z,11.63
2023-05-21T02:38:04.403Z,11.93
2023-05-21T02:40:33.214Z,12.10
2023-05-21T02:43:00.583Z,12.33
2023-05-21T02:45:28.508Z,11.95
2023-05-21T02:47:55.800Z,11.63
2023-05-21T02:50:23.408Z,11.88
2023-05-21T02:52:50.680Z,11.75
2023-05-21T02:55:17.905Z,12.63
2023-05-21T02:57:45.161Z,13.02
2023-05-21T03:00:13.422Z,12.05
2023-05-21T03:02:40.902Z,12.27
2023-05-21T03:05:08.185Z,11.98
2023-05-21T03:07:35.602Z,12.17
2023-05-21T03:10:02.722Z,11.40
2023-05-21T03:12:29.861Z,11.93
2023-05-21T03:14:56.981Z,12.10
2023-05-21T03:17:24.233Z,12.20
2023-05-21T03:19:52.088Z,12.13
2023-05-21T03:22:20.016Z,11.75
2023-05-21T03:24:47.198Z,11.38
2023-05-21T03:27:14.436Z,11.80
2023-05-21T03:29:43.151Z,12.10
2023-05-21T03:32:10.672Z,12.40
2023-05-21T03:34:37.922Z,11.65
2023-05-21T03:37:05.608Z,11.68
2023-05-21T03:39:32.699Z,11.73
2023-05-21T03:42:00.286Z,12.00
2023-05-21T03:44:27.898Z,11.30
2023-05-21T03:46:54.985Z,12.43
2023-05-21T03:49:22.170Z,12.25
2023-05-21T03:51:49.274Z,12.27
2023-05-21T03:54:16.447Z,12.25
2023-05-21T03:56:43.883Z,12.13
2023-05-21T03:59:10.975Z,11.90
2023-05-21T04:01:39.075Z,10.95
2023-05-21T04:04:06.482Z,11.52
2023-05-21T04:06:33.743Z,12.45
2023-05-21T04:09:01.164Z,12.33
2023-05-21T04:11:28.306Z,12.15
2023-05-21T04:13:55.375Z,11.50
2023-05-21T04:16:22.656Z,12.25
2023-05-21T04:18:49.866Z,12.35
2023-05-21T04:21:16.996Z,11.43
2023-05-21T04:23:44.094Z,11.80
2023-05-21T04:26:12.712Z,12.68
2023-05-21T04:28:41.988Z,12.00
2023-05-21T04:31:09.416Z,12.15
2023-05-21T04:33:36.532Z,12.07
2023-05-21T04:36:03.889Z,12.52
2023-05-21T04:38:31.118Z,13.25
2023-05-21T04:40:58.763Z,12.73
2023-05-21T04:43:26.543Z,12.13
2023-05-21T04:45:55.069Z,11.47
2023-05-21T04:48:26.905Z,11.98
2023-05-21T04:50:55.899Z,12.48
2023-05-21T04:53:23.840Z,12.23
2023-05-21T04:55:50.946Z,13.00
2023-05-21T04:58:19.120Z,12.03
2023-05-21T05:00:46.995Z,12.10
2023-05-21T05:03:14.640Z,12.02
2023-05-21T05:05:42.280Z,12.80
2023-05-21T05:08:09.394Z,12.13
2023-05-21T05:10:36.524Z,12.40
2023-05-21T05:13:03.773Z,12.57
2023-05-21T05:15:31.125Z,12.85
2023-05-21T05:17:58.351Z,12.52
2023-05-21T05:20:25.498Z,12.00
2023-05-21T05:22:52.717Z,12.57
2023-05-21T05:25:20.096Z,12.93
2023-05-21T05:27:47.241Z,12.75
2023-05-21T05:30:14.356Z,12.13
2023-05-21T05:32:41.501Z,12.65
2023-05-21T05:35:09.204Z,11.87
2023-05-21T05:37:36.300Z,12.63
2023-05-21T05:40:04.570Z,12.35
2023-05-21T05:42:31.703Z,12.02
2023-05-21T05:44:58.845Z,12.48
2023-05-21T05:47:26.720Z,12.27
2023-05-21T05:49:53.820Z,11.82
2023-05-21T05:52:21.211Z,11.90
2023-05-21T05:54:48.488Z,12.30
2023-05-21T05:57:15.597Z,11.98
2023-05-21T05:59:42.720Z,11.17
2023-05-21T06:02:10.070Z,11.73
2023-05-21T06:04:37.389Z,12.73
2023-05-21T06:07:04.629Z,11.27
2023-05-21T06:09:31.762Z,11.00
2023-05-21T06:11:58.897Z,11.33
2023-05-21T06:14:25.995Z,11.40
2023-05-21T06:16:53.093Z,11.48
2023-05-21T06:19:20.309Z,11.20
2023-05-21T06:21:47.634Z,10.90
2023-05-21T06:24:15.431Z,10.67
2023-05-21T06:26:42.635Z,11.00
2023-05-21T06:29:09.709Z,10.77
2023-05-21T06:31:36.794Z,10.23
2023-05-21T06:34:04.149Z,11.15
2023-05-21T06:36:32.304Z,10.67
2023-05-21T06:38:59.501Z,10.57
2023-05-21T06:41:26.753Z,10.32
2023-05-21T06:43:53.974Z,9.95
2023-05-21T06:46:21.500Z,9.38
2023-05-21T06:48:48.667Z,8.60
2023-05-21T06:51:15.811Z,9.05
2023-05-21T06:53:43.126Z,8.52
2023-05-21T06:56:10.231Z,9.27
2023-05-21T06:58:37.307Z,8.95
2023-05-21T07:01:04.401Z,8.40
2023-05-21T07:03:31.725Z,9.73
2023-05-21T07:05:58.917Z,8.65
2023-05-21T07:08:25.991Z,9.32
2023-05-21T07:10:53.127Z,9.15
2023-05-21T07:13:20.267Z,9.07
2023-05-21T07:15:47.442Z,8.25
2023-05-21T07:18:14.613Z,8.43
2023-05-21T07:20:41.760Z,9.10
2023-05-21T07:23:08.849Z,8.80
2023-05-21T07:25:36.201Z,8.73
2023-05-21T07:28:05.914Z,8.52
2023-05-21T07:30:33.676Z,7.90
2023-05-21T07:33:00.928Z,7.80
2023-05-21T07:35:29.007Z,8.15
2023-05-21T07:37:56.151Z,7.77
2023-05-21T07:40:23.276Z,8.15
2023-05-21T07:42:50.598Z,7.60
2023-05-21T07:45:17.700Z,8.27
2023-05-21T07:47:45.727Z,6.57
2023-05-21T07:50:14.074Z,7.80
2023-05-21T07:52:41.286Z,7.47
2023-05-21T07:55:09.205Z,8.15
2023-05-21T07:57:36.736Z,7.47
2023-05-21T08:00:05.664Z,6.72
2023-05-21T08:02:34.348Z,6.90
2023-05-21T08:05:01.859Z,5.80
2023-05-21T08:07:29.093Z,7.15
2023-05-21T08:09:56.510Z,8.27
2023-05-21T08:12:23.592Z,7.88
2023-05-21T08:14:50.771Z,7.47
2023-05-21T08:17:18.062Z,7.15
2023-05-21T08:19:45.151Z,7.80
2023-05-21T08:22:12.315Z,7.35
2023-05-21T08:24:39.448Z,7.60
2023-05-21T08:27:07.698Z,7.03
2023-05-21T08:29:35.191Z,7.35
2023-05-21T08:32:02.387Z,8.10
2023-05-21T08:34:29.641Z,7.38
2023-05-21T08:36:56.776Z,7.15
2023-05-21T08:39:23.860Z,7.47
2023-05-21T08:41:53.156Z,7.82
2023-05-21T08:44:21.660Z,7.53
2023-05-21T08:46:49.929Z,8.18
2023-05-21T08:49:17.709Z,7.50
2023-05-21T08:51:45.756Z,8.40
2023-05-21T08:54:13.974Z,8.02
2023-05-21T08:56:45.789Z,8.13
2023-05-21T08:59:13.701Z,8.07
2023-05-21T09:01:42.303Z,8.50
2023-05-21T09:04:20.219Z,7.87
2023-05-21T09:06:48.602Z,8.15
2023-05-21T09:09:29.449Z,8.20
2023-05-21T09:11:56.568Z,7.72
2023-05-21T09:14:23.856Z,7.55
2023-05-21T09:16:51.036Z,8.27
2023-05-21T09:19:21.751Z,8.02
2023-05-21T09:21:51.555Z,8.15
2023-05-21T09:24:22.609Z,8.05
2023-05-21T09:26:49.799Z,8.00
2023-05-21T09:29:16.920Z,7.17
2023-05-21T09:31:45.098Z,7.63
2023-05-21T09:34:14.027Z,8.27
2023-05-21T09:36:41.158Z,7.18
2023-05-21T09:39:08.814Z,7.03
2023-05-21T09:41:36.852Z,7.17
2023-05-21T09:44:04.575Z,6.78
2023-05-21T09:46:41.688Z,7.47
2023-05-21T09:49:26.107Z,6.85
2023-05-21T09:51:59.084Z,7.35
2023-05-21T09:54:31.202Z,7.57
2023-05-21T09:57:01.410Z,7.75
2023-05-21T09:59:40.993Z,8.15
2023-05-21T10:02:21.796Z,7.28
2023-05-21T10:04:50.791Z,6.63
2023-05-21T10:07:19.218Z,7.43
2023-05-21T10:09:48.674Z,7.03
2023-05-21T10:12:18.112Z,7.28
2023-05-21T10:14:46.959Z,7.38
2023-05-21T10:17:14.667Z,7.68
2023-05-21T10:19:42.270Z,7.20
2023-05-21T10:22:09.955Z,7.10
2023-05-21T10:24:37.667Z,7.35
2023-05-21T10:27:05.152Z,6.93
2023-05-21T10:29:32.329Z,6.75
2023-05-21T10:32:01.058Z,6.70
2023-05-21T10:34:28.751Z,6.43
2023-05-21T10:36:57.252Z,6.60
2023-05-21T10:39:25.639Z,6.30
2023-05-21T10:42:19.024Z,7.72
2023-05-21T10:45:04.300Z,6.27
2023-05-21T10:47:54.586Z,6.45
2023-05-21T10:50:50.799Z,6.43
2023-05-21T10:53:20.584Z,5.60
2023-05-21T10:56:09.068Z,6.40
2023-05-21T10:59:02.845Z,5.80
2023-05-21T11:01:33.989Z,5.80
2023-05-21T11:04:04.132Z,5.50
2023-05-21T11:06:31.349Z,6.13
2023-05-21T11:09:03.077Z,5.18
2023-05-21T11:11:46.214Z,5.73
2023-05-21T11:14:31.854Z,5.68
2023-05-21T11:16:59.899Z,5.45
2023-05-21T11:19:37.961Z,5.50
2023-05-21T11:22:22.827Z,5.22
2023-05-21T11:24:51.338Z,6.13
2023-05-21T11:27:40.989Z,5.05
2023-05-21T11:30:09.157Z,5.97
2023-05-21T11:32:40.614Z,5.32
2023-05-21T11:35:08.057Z,5.10
2023-05-21T11:37:36.107Z,5.17
2023-05-21T11:40:25.796Z,5.65
2023-05-21T11:42:56.707Z,6.00
2023-05-21T11:45:28.919Z,5.25
2023-05-21T11:47:56.203Z,5.20
2023-05-21T11:50:23.399Z,5.47
2023-05-21T11:52:51.007Z,4.63
2023-05-21T11:55:25.866Z,5.85
2023-05-21T11:57:53.834Z,5.00
2023-05-21T12:00:21.678Z,5.32
2023-05-21T12:02:53.026Z,4.63
2023-05-21T12:05:20.908Z,4.47
2023-05-21T12:07:49.960Z,4.80
2023-05-21T12:10:21.642Z,5.10
2023-05-21T12:12:55.600Z,5.50
2023-05-21T12:15:25.239Z,4.67
2023-05-21T12:17:55.123Z,4.60
2023-05-21T12:20:22.548Z,4.80
2023-05-21T12:22:50.236Z,4.53
2023-05-21T12:25:21.135Z,4.72
2023-05-21T12:27:50.879Z,4.77
2023-05-21T12:30:18.206Z,4.00
2023-05-21T12:32:47.011Z,3.85
2023-05-21T12:35:22.036Z,4.43
2023-05-21T12:37:51.624Z,4.07
2023-05-21T12:40:19.113Z,4.20
2023-05-21T12:42:46.429Z,4.70
2023-05-21T12:45:14.089Z,4.50
2023-05-21T12:47:41.346Z,4.57
2023-05-21T12:50:11.606Z,4.40
2023-05-21T12:52:40.390Z,4.30
2023-05-21T12:55:09.549Z,3.33
2023-05-21T12:57:38.912Z,4.70
2023-05-21T13:00:09.172Z,4.63
2023-05-21T13:02:41.825Z,4.55
2023-05-21T13:05:17.632Z,3.87
2023-05-21T13:07:47.171Z,4.28
2023-05-21T13:10:16.592Z,4.43
2023-05-21T13:12:44.798Z,3.80
2023-05-21T13:15:12.311Z,4.45
2023-05-21T13:17:39.572Z,3.87
2023-05-21T13:20:21.375Z,4.55
2023-05-21T13:22:50.662Z,4.07
2023-05-21T13:25:24.569Z,4.10
2023-05-21T13:27:52.918Z,3.75
2023-05-21T13:30:20.898Z,3.90
2023-05-21T13:32:48.222Z,4.70
2023-05-21T13:35:16.759Z,4.00
2023-05-21T13:37:45.238Z,3.95
2023-05-21T13:40:17.059Z,4.32
2023-05-21T13:42:45.726Z,4.60
2023-05-21T13:45:15.476Z,4.63
2023-05-21T13:47:44.259Z,5.07
2023-05-21T13:50:12.237Z,5.03
2023-05-21T13:52:39.358Z,4.90
2023-05-21T13:55:06.722Z,4.63
2023-05-21T13:57:33.849Z,4.50
2023-05-21T14:00:01.083Z,4.78
2023-05-21T14:02:28.388Z,4.60
2023-05-21T14:04:55.835Z,4.90
2023-05-21T14:07:22.993Z,5.17
2023-05-21T14:09:50.156Z,5.32
2023-05-21T14:12:17.404Z,5.10
2023-05-21T14:14:44.683Z,5.07
2023-05-21T14:17:11.882Z,5.28
2023-05-21T14:19:39.030Z,4.93
2023-05-21T14:22:06.158Z,5.22
2023-05-21T14:24:33.270Z,5.45
2023-05-21T14:27:00.373Z,4.15
2023-05-21T14:29:28.474Z,5.50
2023-05-21T14:31:55.609Z,5.20
2023-05-21T14:34:22.748Z,7.18
2023-05-21T14:36:49.858Z,5.43
2023-05-21T14:39:17.227Z,5.10
2023-05-21T14:41:44.441Z,7.22
2023-05-21T14:44:11.615Z,5.43
2023-05-21T14:46:39.541Z,5.95
2023-05-21T14:49:06.773Z,5.25
2023-05-21T14:51:33.878Z,5.15
2023-05-21T14:54:01.006Z,8.45
2023-05-21T14:56:28.219Z,5.60
2023-05-21T14:58:56.298Z,5.72
2023-05-21T15:01:23.588Z,5.25
2023-05-21T15:03:51.345Z,5.00
2023-05-21T15:06:18.640Z,5.35
2023-05-21T15:08:45.865Z,4.70
2023-05-21T15:11:14.420Z,4.60
2023-05-21T15:13:41.559Z,4.70
2023-05-21T15:16:08.769Z,5.03
2023-05-21T15:18:36.066Z,4.65
2023-05-21T15:21:03.236Z,4.63
2023-05-21T15:23:30.461Z,5.45
2023-05-21T15:25:57.592Z,4.82
2023-05-21T15:28:25.204Z,4.75
2023-05-21T15:30:52.462Z,5.00
2023-05-21T15:33:19.572Z,4.67
2023-05-21T15:35:46.760Z,4.80
2023-05-21T15:38:13.936Z,5.25
2023-05-21T15:40:44.300Z,4.53
2023-05-21T15:43:11.453Z,4.60
2023-05-21T15:45:39.144Z,4.17
2023-05-21T15:48:07.068Z,4.35
2023-05-21T15:50:35.734Z,4.78
2023-05-21T15:53:04.196Z,3.97
2023-05-21T15:55:34.186Z,4.30
2023-05-21T15:58:02.864Z,4.67
2023-05-21T16:00:30.199Z,4.15
2023-05-21T16:02:57.325Z,3.80
2023-05-21T16:05:24.513Z,3.83
2023-05-21T16:07:51.604Z,3.83
2023-05-21T16:10:18.804Z,4.27
2023-05-21T16:12:45.980Z,4.60
2023-05-21T16:15:13.096Z,4.40
2023-05-21T16:17:40.553Z,3.85
2023-05-21T16:20:07.912Z,4.32
2023-05-21T16:22:34.983Z,4.10
2023-05-21T16:25:02.830Z,4.68
2023-05-21T16:27:29.947Z,4.72
2023-05-21T16:29:57.242Z,4.47
2023-05-21T16:32:26.567Z,4.63
2023-05-21T16:34:53.798Z,4.77
2023-05-21T16:37:21.338Z,4.07
2023-05-21T16:39:48.450Z,4.60
2023-05-21T16:42:15.534Z,4.40
2023-05-21T16:44:42.636Z,4.97
2023-05-21T16:47:09.843Z,5.97
2023-05-21T16:49:36.961Z,6.95
2023-05-21T16:52:04.199Z,6.68
2023-05-21T16:54:31.387Z,6.65
2023-05-21T16:56:58.593Z,7.68
2023-05-21T16:59:25.710Z,6.77
2023-05-21T17:01:52.941Z,7.25
2023-05-21T17:04:20.135Z,7.60
2023-05-21T17:06:47.288Z,7.18
2023-05-21T17:09:14.864Z,6.97
2023-05-21T17:11:43.678Z,6.60
2023-05-21T17:14:13.476Z,6.35
2023-05-21T17:16:44.954Z,5.70
2023-05-21T17:19:12.123Z,6.00
2023-05-21T17:21:39.387Z,6.40
2023-05-21T17:24:06.748Z,6.13
2023-05-21T17:26:33.881Z,6.00
2023-05-21T17:29:01.296Z,5.95
2023-05-21T17:31:30.756Z,6.25
2023-05-21T17:33:58.119Z,5.68
2023-05-21T17:36:25.309Z,6.40
2023-05-21T17:38:52.494Z,6.38
2023-05-21T17:41:21.926Z,5.95
2023-05-21T17:43:49.060Z,6.40
2023-05-21T17:46:18.364Z,6.18
2023-05-21T17:48:45.648Z,7.57
2023-05-21T17:51:12.927Z,6.13
2023-05-21T17:53:40.852Z,6.13
2023-05-21T17:56:08.234Z,6.25
2023-05-21T17:58:35.421Z,6.28
2023-05-21T18:01:02.811Z,5.60
2023-05-21T18:03:30.310Z,6.00
2023-05-21T18:05:57.518Z,5.78
2023-05-21T18:08:26.749Z,5.50
2023-05-21T18:10:54.115Z,5.95
2023-05-21T18:13:21.576Z,5.57
2023-05-21T18:15:48.882Z,5.68
2023-05-21T18:18:21.492Z,5.53
2023-05-21T18:20:49.711Z,5.43
2023-05-21T18:23:17.769Z,5.55
2023-05-21T18:25:44.941Z,5.60
2023-05-21T18:28:12.070Z,5.60
2023-05-21T18:30:39.383Z,5.53
2023-05-21T18:33:08.824Z,4.78
2023-05-21T18:35:35.990Z,5.25
2023-05-21T18:38:04.392Z,5.37
2023-05-21T18:40:33.184Z,5.43
2023-05-21T18:43:00.736Z,5.97
2023-05-21T18:45:27.994Z,5.60
2023-05-21T18:47:55.718Z,5.30
2023-05-21T18:50:23.062Z,5.67
2023-05-21T18:52:53.819Z,6.43
2023-05-21T18:55:21.777Z,5.72
2023-05-21T18:57:49.058Z,5.00
2023-05-21T19:00:16.866Z,5.32
2023-05-21T19:02:44.358Z,4.93
2023-05-21T19:05:11.618Z,5.00
2023-05-21T19:07:38.748Z,5.43
2023-05-21T19:10:06.377Z,5.28
2023-05-21T19:12:35.961Z,5.32
2023-05-21T19:15:06.074Z,5.13
2023-05-21T19:17:35.033Z,5.55
2023-05-21T19:20:04.973Z,5.10
2023-05-21T19:22:32.249Z,5.55
2023-05-21T19:25:00.577Z,6.20
2023-05-21T19:27:29.293Z,5.20
2023-05-21T19:29:56.570Z,5.55
2023-05-21T19:32:24.004Z,5.30
2023-05-21T19:34:52.147Z,5.80
2023-05-21T19:37:19.269Z,5.68
2023-05-21T19:39:49.941Z,5.10
2023-05-21T19:42:18.751Z,5.55
2023-05-21T19:44:46.237Z,5.40
2023-05-21T19:47:13.596Z,5.97
2023-05-21T19:49:40.679Z,5.10
2023-05-21T19:52:07.842Z,6.23
2023-05-21T19:54:34.945Z,5.82
2023-05-21T19:57:02.139Z,5.60
2023-05-21T19:59:29.244Z,5.75
2023-05-21T20:01:56.327Z,6.20
2023-05-21T20:04:23.453Z,5.53
2023-05-21T20:06:51.463Z,5.47
2023-05-21T20:09:18.536Z,5.68
2023-05-21T20:11:45.704Z,5.47
2023-05-21T20:14:13.425Z,5.80
2023-05-21T20:16:42.197Z,5.97
2023-05-21T20:19:10.595Z,6.00
2023-05-21T20:21:37.868Z,5.80
2023-05-21T20:24:05.715Z,5.60
2023-05-21T20:26:34.931Z,5.43
2023-05-21T20:29:02.144Z,5.93
2023-05-21T20:31:29.410Z,6.40
2023-05-21T20:33:56.584Z,5.55
2023-05-21T20:36:23.877Z,5.75
2023-05-21T20:38:51.102Z,6.22
2023-05-21T20:41:18.200Z,6.03
2023-05-21T20:43:45.906Z,6.28
2023-05-21T20:46:13.506Z,6.15
2023-05-21T20:48:41.750Z,6.13
2023-05-21T20:51:09.091Z,6.57
2023-05-21T20:53:36.900Z,6.70
2023-05-21T20:56:07.960Z,6.20
2023-05-21T20:58:35.228Z,6.32
2023-05-21T21:01:02.325Z,6.22
2023-05-21T21:03:30.412Z,5.70
2023-05-21T21:05:59.634Z,6.27
2023-05-21T21:08:27.675Z,5.30
2023-05-21T21:10:54.869Z,5.90
2023-05-21T21:13:22.286Z,5.38
2023-05-21T21:15:50.048Z,5.40
2023-05-21T21:18:17.528Z,5.27
2023-05-21T21:20:49.430Z,5.93
2023-05-21T21:23:16.592Z,4.78
2023-05-21T21:25:44.386Z,5.70
2023-05-21T21:28:11.984Z,4.95
2023-05-21T21:30:40.865Z,4.83
2023-05-21T21:33:08.547Z,4.75
2023-05-21T21:35:35.983Z,4.78
2023-05-21T21:38:04.860Z,4.95
2023-05-21T21:40:32.107Z,4.80
2023-05-21T21:42:59.237Z,4.80
2023-05-21T21:45:26.510Z,5.13
2023-05-21T21:47:53.720Z,5.65
2023-05-21T21:50:20.913Z,5.63
2023-05-21T21:52:48.828Z,5.30
2023-05-21T21:55:16.057Z,4.70
2023-05-21T21:57:43.170Z,4.63
2023-05-21T22:00:17.263Z,4.97
2023-05-21T22:02:46.497Z,4.90
2023-05-21T22:05:16.926Z,4.90
2023-05-21T22:07:47.228Z,4.83
2023-05-21T22:10:16.101Z,4.75
2023-05-21T22:12:43.945Z,5.15
2023-05-21T22:15:17.928Z,5.40
2023-05-21T22:17:45.317Z,4.78
2023-05-21T22:20:12.720Z,5.30
2023-05-21T22:22:39.817Z,5.25
2023-05-21T22:25:07.119Z,5.35
2023-05-21T22:27:34.252Z,5.30
2023-05-21T22:30:01.362Z,5.20
2023-05-21T22:32:28.476Z,5.03
2023-05-21T22:34:55.642Z,5.28
2023-05-21T22:37:23.699Z,4.80
2023-05-21T22:39:50.841Z,5.63
2023-05-21T22:42:18.408Z,5.10
2023-05-21T22:44:45.537Z,6.17
2023-05-21T22:47:13.925Z,6.15
2023-05-21T22:49:41.070Z,5.97
2023-05-21T22:52:09.452Z,6.15
2023-05-21T22:54:36.694Z,6.30
2023-05-21T22:57:04.055Z,5.90
2023-05-21T22:59:33.987Z,6.13
2023-05-21T23:02:01.210Z,6.60
2023-05-21T23:04:42.741Z,6.47
2023-05-21T23:07:11.652Z,6.20
2023-05-21T23:09:38.808Z,5.93
2023-05-21T23:12:06.466Z,6.00
2023-05-21T23:14:33.758Z,7.50
2023-05-21T23:17:02.279Z,6.70
2023-05-21T23:19:29.818Z,6.90
2023-05-21T23:21:57.192Z,7.00
2023-05-21T23:24:24.298Z,6.90
2023-05-21T23:26:52.379Z,6.78
2023-05-21T23:29:19.493Z,6.28
2023-05-21T23:31:46.897Z,7.07
2023-05-21T23:34:14.201Z,6.53
2023-05-21T23:36:41.315Z,6.53
2023-05-21T23:39:09.227Z,6.72
2023-05-21T23:41:36.425Z,6.60
2023-05-21T23:44:03.640Z,6.97
2023-05-21T23:46:30.896Z,6.70
2023-05-21T23:48:57.975Z,7.43
2023-05-21T23:51:25.264Z,6.85
2023-05-21T23:53:52.406Z,6.80
2023-05-21T23:56:19.545Z,6.47
2023-05-21T23:58:46.627Z,6.60
